sensor_id;sensor_type;location;lat;lon;timestamp;temperature;humidity
2459;DHT22;1241;50.920;6.936;2022-08-18T00:00:31;20.90;99.90
2459;DHT22;1241;50.920;6.936;2022-08-18T00:03:06;20.80;99.90
2459;DHT22;1241;50.920;6.936;2022-08-18T00:05:33;20.70;99.90
2459;DHT22;1241;50.920;6.936;2022-08-18T00:08:00;20.80;99.90
2459;DHT22;1241;50.920;6.936;2022-08-18T00:10:26;20.70;99.90
2459;DHT22;1241;50.920;6.936;2022-08-18T00:12:52;20.70;99.90
2459;DHT22;1241;50.920;6.936;2022-08-18T00:15:18;20.60;99.90
2459;DHT22;1241;50.920;6.936;2022-08-18T00:17:45;20.50;99.90
2459;DHT22;1241;50.920;6.936;2022-08-18T00:20:16;20.50;99.90
2459;DHT22;1241;50.920;6.936;2022-08-18T00:22:42;20.50;99.90
2459;DHT22;1241;50.920;6.936;2022-08-18T00:25:09;20.40;99.90
2459;DHT22;1241;50.920;6.936;2022-08-18T00:27:36;20.40;99.90
2459;DHT22;1241;50.920;6.936;2022-08-18T00:30:05;20.30;99.90
2459;DHT22;1241;50.920;6.936;2022-08-18T00:32:41;20.20;99.90
2459;DHT22;1241;50.920;6.936;2022-08-18T00:35:14;20.20;99.90
2459;DHT22;1241;50.920;6.936;2022-08-18T00:37:41;20.20;99.90
2459;DHT22;1241;50.920;6.936;2022-08-18T00:40:11;20.20;99.90
2459;DHT22;1241;50.920;6.936;2022-08-18T00:42:46;20.20;99.90
2459;DHT22;1241;50.920;6.936;2022-08-18T00:45:17;20.10;99.90
2459;DHT22;1241;50.920;6.936;2022-08-18T00:47:43;20.10;99.90
2459;DHT22;1241;50.920;6.936;2022-08-18T00:50:14;20.10;99.90
2459;DHT22;1241;50.920;6.936;2022-08-18T00:52:41;20.10;99.90
2459;DHT22;1241;50.920;6.936;2022-08-18T00:55:07;20.10;99.90
2459;DHT22;1241;50.920;6.936;2022-08-18T00:57:33;20.10;99.90
2459;DHT22;1241;50.920;6.936;2022-08-18T01:00:04;19.90;99.90
2459;DHT22;1241;50.920;6.936;2022-08-18T01:02:47;19.80;99.90
2459;DHT22;1241;50.920;6.936;2022-08-18T01:05:33;19.80;99.90
2459;DHT22;1241;50.920;6.936;2022-08-18T01:08:02;19.80;99.90
2459;DHT22;1241;50.920;6.936;2022-08-18T01:10:32;19.80;99.90
2459;DHT22;1241;50.920;6.936;2022-08-18T01:12:58;19.70;99.90
2459;DHT22;1241;50.920;6.936;2022-08-18T01:15:26;19.80;99.90
2459;DHT22;1241;50.920;6.936;2022-08-18T01:17:54;19.80;99.90
2459;DHT22;1241;50.920;6.936;2022-08-18T01:23:47;19.70;99.90
2459;DHT22;1241;50.920;6.936;2022-08-18T01:26:14;19.60;99.90
2459;DHT22;1241;50.920;6.936;2022-08-18T01:28:43;19.60;99.90
2459;DHT22;1241;50.920;6.936;2022-08-18T01:31:11;19.70;99.90
2459;DHT22;1241;50.920;6.936;2022-08-18T01:33:43;19.70;99.90
2459;DHT22;1241;50.920;6.936;2022-08-18T01:36:14;19.70;99.90
2459;DHT22;1241;50.920;6.936;2022-08-18T01:38:42;19.70;99.90
2459;DHT22;1241;50.920;6.936;2022-08-18T01:41:08;19.70;99.90
2459;DHT22;1241;50.920;6.936;2022-08-18T01:43:34;19.60;99.90
2459;DHT22;1241;50.920;6.936;2022-08-18T01:46:01;19.60;99.90
2459;DHT22;1241;50.920;6.936;2022-08-18T01:48:29;19.50;99.90
2459;DHT22;1241;50.920;6.936;2022-08-18T01:50:58;19.40;99.90
2459;DHT22;1241;50.920;6.936;2022-08-18T01:53:24;19.50;99.90
2459;DHT22;1241;50.920;6.936;2022-08-18T01:55:49;19.40;99.90
2459;DHT22;1241;50.920;6.936;2022-08-18T01:58:15;19.40;99.90
2459;DHT22;1241;50.920;6.936;2022-08-18T02:00:42;19.30;99.90
2459;DHT22;1241;50.920;6.936;2022-08-18T02:03:11;19.30;99.90
2459;DHT22;1241;50.920;6.936;2022-08-18T02:05:42;19.30;99.90
2459;DHT22;1241;50.920;6.936;2022-08-18T02:08:09;19.30;99.90
2459;DHT22;1241;50.920;6.936;2022-08-18T02:10:38;19.30;99.90
2459;DHT22;1241;50.920;6.936;2022-08-18T02:13:04;19.20;99.90
2459;DHT22;1241;50.920;6.936;2022-08-18T02:15:31;19.20;99.90
2459;DHT22;1241;50.920;6.936;2022-08-18T02:17:56;19.20;99.90
2459;DHT22;1241;50.920;6.936;2022-08-18T02:20:23;19.30;99.90
2459;DHT22;1241;50.920;6.936;2022-08-18T02:22:49;19.20;99.90
2459;DHT22;1241;50.920;6.936;2022-08-18T02:25:16;19.30;99.90
2459;DHT22;1241;50.920;6.936;2022-08-18T02:27:42;19.20;99.90
2459;DHT22;1241;50.920;6.936;2022-08-18T02:30:12;19.20;99.90
2459;DHT22;1241;50.920;6.936;2022-08-18T02:32:38;19.20;99.90
2459;DHT22;1241;50.920;6.936;2022-08-18T02:35:05;19.20;99.90
2459;DHT22;1241;50.920;6.936;2022-08-18T02:37:31;19.10;99.90
2459;DHT22;1241;50.920;6.936;2022-08-18T02:39:57;19.20;99.90
2459;DHT22;1241;50.920;6.936;2022-08-18T02:42:23;19.20;99.90
2459;DHT22;1241;50.920;6.936;2022-08-18T02:44:49;19.10;99.90
2459;DHT22;1241;50.920;6.936;2022-08-18T02:47:20;19.20;99.90
2459;DHT22;1241;50.920;6.936;2022-08-18T02:49:46;19.20;99.90
2459;DHT22;1241;50.920;6.936;2022-08-18T02:52:12;19.10;99.90
2459;DHT22;1241;50.920;6.936;2022-08-18T02:54:38;19.10;99.90
2459;DHT22;1241;50.920;6.936;2022-08-18T02:57:11;19.00;99.90
2459;DHT22;1241;50.920;6.936;2022-08-18T02:59:38;18.90;99.90
2459;DHT22;1241;50.920;6.936;2022-08-18T03:02:06;18.90;99.90
2459;DHT22;1241;50.920;6.936;2022-08-18T03:04:32;18.90;99.90
2459;DHT22;1241;50.920;6.936;2022-08-18T03:07:02;18.90;99.90
2459;DHT22;1241;50.920;6.936;2022-08-18T03:09:30;18.90;99.90
2459;DHT22;1241;50.920;6.936;2022-08-18T03:11:56;18.80;99.90
2459;DHT22;1241;50.920;6.936;2022-08-18T03:14:23;18.80;99.90
2459;DHT22;1241;50.920;6.936;2022-08-18T03:16:50;18.80;99.90
2459;DHT22;1241;50.920;6.936;2022-08-18T03:19:16;18.90;99.90
2459;DHT22;1241;50.920;6.936;2022-08-18T03:21:46;18.90;99.90
2459;DHT22;1241;50.920;6.936;2022-08-18T03:24:12;18.90;99.90
2459;DHT22;1241;50.920;6.936;2022-08-18T03:26:41;18.80;99.90
2459;DHT22;1241;50.920;6.936;2022-08-18T03:29:07;18.80;99.90
2459;DHT22;1241;50.920;6.936;2022-08-18T03:31:33;18.70;99.90
2459;DHT22;1241;50.920;6.936;2022-08-18T03:34:04;18.70;99.90
2459;DHT22;1241;50.920;6.936;2022-08-18T03:36:31;18.70;99.90
2459;DHT22;1241;50.920;6.936;2022-08-18T03:39:00;18.70;99.90
2459;DHT22;1241;50.920;6.936;2022-08-18T03:41:27;18.60;99.90
2459;DHT22;1241;50.920;6.936;2022-08-18T03:43:54;18.50;99.90
2459;DHT22;1241;50.920;6.936;2022-08-18T03:46:21;18.60;99.90
2459;DHT22;1241;50.920;6.936;2022-08-18T03:48:48;18.50;99.90
2459;DHT22;1241;50.920;6.936;2022-08-18T03:53:40;18.30;99.90
2459;DHT22;1241;50.920;6.936;2022-08-18T03:56:09;18.30;99.90
2459;DHT22;1241;50.920;6.936;2022-08-18T04:01:15;18.20;99.90
2459;DHT22;1241;50.920;6.936;2022-08-18T04:03:46;18.20;99.90
2459;DHT22;1241;50.920;6.936;2022-08-18T04:06:20;18.20;99.90
2459;DHT22;1241;50.920;6.936;2022-08-18T04:08:49;18.20;99.90
2459;DHT22;1241;50.920;6.936;2022-08-18T04:11:16;18.20;99.90
2459;DHT22;1241;50.920;6.936;2022-08-18T04:13:42;18.30;99.90
2459;DHT22;1241;50.920;6.936;2022-08-18T04:16:08;18.50;99.90
2459;DHT22;1241;50.920;6.936;2022-08-18T04:18:34;18.60;99.90
2459;DHT22;1241;50.920;6.936;2022-08-18T04:21:04;18.60;99.90
2459;DHT22;1241;50.920;6.936;2022-08-18T04:23:36;18.70;99.90
2459;DHT22;1241;50.920;6.936;2022-08-18T04:26:03;18.70;99.90
2459;DHT22;1241;50.920;6.936;2022-08-18T04:28:29;18.80;99.90
2459;DHT22;1241;50.920;6.936;2022-08-18T04:30:56;18.90;99.90
2459;DHT22;1241;50.920;6.936;2022-08-18T04:33:26;19.00;99.90
2459;DHT22;1241;50.920;6.936;2022-08-18T04:35:53;19.10;99.90
2459;DHT22;1241;50.920;6.936;2022-08-18T04:38:20;19.00;99.90
2459;DHT22;1241;50.920;6.936;2022-08-18T04:40:46;19.20;99.90
2459;DHT22;1241;50.920;6.936;2022-08-18T04:43:13;19.00;99.90
2459;DHT22;1241;50.920;6.936;2022-08-18T04:45:46;19.00;99.90
2459;DHT22;1241;50.920;6.936;2022-08-18T04:48:12;19.00;99.90
2459;DHT22;1241;50.920;6.936;2022-08-18T04:50:41;18.90;99.90
2459;DHT22;1241;50.920;6.936;2022-08-18T04:53:07;18.90;99.90
2459;DHT22;1241;50.920;6.936;2022-08-18T04:55:54;18.80;99.90
2459;DHT22;1241;50.920;6.936;2022-08-18T04:58:21;18.70;99.90
2459;DHT22;1241;50.920;6.936;2022-08-18T05:00:59;18.80;99.90
2459;DHT22;1241;50.920;6.936;2022-08-18T05:03:25;18.80;99.90
2459;DHT22;1241;50.920;6.936;2022-08-18T05:05:56;18.90;99.90
2459;DHT22;1241;50.920;6.936;2022-08-18T05:08:23;18.80;99.90
2459;DHT22;1241;50.920;6.936;2022-08-18T05:10:56;18.80;99.90
2459;DHT22;1241;50.920;6.936;2022-08-18T05:13:23;18.80;99.90
2459;DHT22;1241;50.920;6.936;2022-08-18T05:15:54;18.80;99.90
2459;DHT22;1241;50.920;6.936;2022-08-18T05:18:23;18.80;99.90
2459;DHT22;1241;50.920;6.936;2022-08-18T05:20:50;18.80;99.90
2459;DHT22;1241;50.920;6.936;2022-08-18T05:23:17;18.90;99.90
2459;DHT22;1241;50.920;6.936;2022-08-18T05:25:43;18.90;99.90
2459;DHT22;1241;50.920;6.936;2022-08-18T05:28:09;19.00;99.90
2459;DHT22;1241;50.920;6.936;2022-08-18T05:30:35;18.90;99.90
2459;DHT22;1241;50.920;6.936;2022-08-18T05:33:02;19.00;99.90
2459;DHT22;1241;50.920;6.936;2022-08-18T05:35:40;19.10;99.90
2459;DHT22;1241;50.920;6.936;2022-08-18T05:40:43;19.10;99.90
2459;DHT22;1241;50.920;6.936;2022-08-18T05:43:10;19.20;99.90
2459;DHT22;1241;50.920;6.936;2022-08-18T05:45:39;19.20;99.90
2459;DHT22;1241;50.920;6.936;2022-08-18T05:48:05;19.30;99.90
2459;DHT22;1241;50.920;6.936;2022-08-18T05:50:33;19.20;99.90
2459;DHT22;1241;50.920;6.936;2022-08-18T05:53:06;19.20;99.90
2459;DHT22;1241;50.920;6.936;2022-08-18T05:55:44;19.20;99.90
2459;DHT22;1241;50.920;6.936;2022-08-18T05:58:40;19.40;99.90
2459;DHT22;1241;50.920;6.936;2022-08-18T06:01:14;19.40;99.90
2459;DHT22;1241;50.920;6.936;2022-08-18T06:04:06;19.30;99.90
2459;DHT22;1241;50.920;6.936;2022-08-18T06:06:35;19.30;99.90
2459;DHT22;1241;50.920;6.936;2022-08-18T06:09:20;19.30;99.90
2459;DHT22;1241;50.920;6.936;2022-08-18T06:11:49;19.30;99.90
2459;DHT22;1241;50.920;6.936;2022-08-18T06:14:16;19.40;99.90
2459;DHT22;1241;50.920;6.936;2022-08-18T06:22:45;19.30;99.90
2459;DHT22;1241;50.920;6.936;2022-08-18T06:25:33;19.50;99.90
2459;DHT22;1241;50.920;6.936;2022-08-18T06:28:11;19.50;99.90
2459;DHT22;1241;50.920;6.936;2022-08-18T06:30:45;19.50;99.90
2459;DHT22;1241;50.920;6.936;2022-08-18T06:36:36;19.80;99.90
2459;DHT22;1241;50.920;6.936;2022-08-18T06:39:22;20.00;99.90
2459;DHT22;1241;50.920;6.936;2022-08-18T06:41:51;20.30;99.90
2459;DHT22;1241;50.920;6.936;2022-08-18T06:44:38;20.40;99.90
2459;DHT22;1241;50.920;6.936;2022-08-18T06:52:34;20.80;99.90
2459;DHT22;1241;50.920;6.936;2022-08-18T06:57:36;20.80;99.90
2459;DHT22;1241;50.920;6.936;2022-08-18T07:00:27;20.80;99.90
2459;DHT22;1241;50.920;6.936;2022-08-18T07:03:15;20.80;99.90
2459;DHT22;1241;50.920;6.936;2022-08-18T07:08:39;21.20;99.90
2459;DHT22;1241;50.920;6.936;2022-08-18T07:11:26;21.20;99.90
2459;DHT22;1241;50.920;6.936;2022-08-18T07:13:58;21.20;99.90
2459;DHT22;1241;50.920;6.936;2022-08-18T07:16:36;21.10;99.90
2459;DHT22;1241;50.920;6.936;2022-08-18T07:19:29;21.20;99.90
2459;DHT22;1241;50.920;6.936;2022-08-18T07:22:11;21.30;99.90
2459;DHT22;1241;50.920;6.936;2022-08-18T07:24:48;21.30;99.90
2459;DHT22;1241;50.920;6.936;2022-08-18T07:27:15;21.40;99.90
2459;DHT22;1241;50.920;6.936;2022-08-18T07:30:24;21.50;99.90
2459;DHT22;1241;50.920;6.936;2022-08-18T07:32:52;21.60;99.90
2459;DHT22;1241;50.920;6.936;2022-08-18T07:35:42;21.70;99.90
2459;DHT22;1241;50.920;6.936;2022-08-18T07:38:32;21.70;99.90
2459;DHT22;1241;50.920;6.936;2022-08-18T07:41:13;21.70;99.90
2459;DHT22;1241;50.920;6.936;2022-08-18T07:49:27;21.90;99.90
2459;DHT22;1241;50.920;6.936;2022-08-18T07:52:01;22.20;99.90
2459;DHT22;1241;50.920;6.936;2022-08-18T07:54:36;22.20;99.90
2459;DHT22;1241;50.920;6.936;2022-08-18T08:05:34;22.70;99.90
2459;DHT22;1241;50.920;6.936;2022-08-18T08:18:54;22.40;99.90
2459;DHT22;1241;50.920;6.936;2022-08-18T08:21:28;22.20;99.90
2459;DHT22;1241;50.920;6.936;2022-08-18T08:24:16;22.30;99.90
2459;DHT22;1241;50.920;6.936;2022-08-18T08:27:24;22.30;99.90
2459;DHT22;1241;50.920;6.936;2022-08-18T08:30:08;22.20;99.90
2459;DHT22;1241;50.920;6.936;2022-08-18T08:35:20;22.20;99.90
2459;DHT22;1241;50.920;6.936;2022-08-18T08:37:55;22.20;99.90
2459;DHT22;1241;50.920;6.936;2022-08-18T08:40:26;22.30;99.90
2459;DHT22;1241;50.920;6.936;2022-08-18T08:43:07;22.50;99.90
2459;DHT22;1241;50.920;6.936;2022-08-18T08:45:43;22.60;99.90
2459;DHT22;1241;50.920;6.936;2022-08-18T08:48:31;22.50;99.90
2459;DHT22;1241;50.920;6.936;2022-08-18T08:53:34;22.70;99.90
2459;DHT22;1241;50.920;6.936;2022-08-18T08:56:07;22.60;99.90
2459;DHT22;1241;50.920;6.936;2022-08-18T08:58:47;22.70;99.90
2459;DHT22;1241;50.920;6.936;2022-08-18T09:01:39;22.80;99.90
2459;DHT22;1241;50.920;6.936;2022-08-18T09:15:15;23.10;99.90
2459;DHT22;1241;50.920;6.936;2022-08-18T09:22:57;24.00;99.90
2459;DHT22;1241;50.920;6.936;2022-08-18T09:36:01;25.40;99.90
2459;DHT22;1241;50.920;6.936;2022-08-18T09:38:31;25.60;99.90
2459;DHT22;1241;50.920;6.936;2022-08-18T09:41:21;25.60;99.90
2459;DHT22;1241;50.920;6.936;2022-08-18T09:43:58;25.80;99.90
2459;DHT22;1241;50.920;6.936;2022-08-18T09:51:52;26.10;99.90
2459;DHT22;1241;50.920;6.936;2022-08-18T09:54:23;26.10;99.90
2459;DHT22;1241;50.920;6.936;2022-08-18T09:56:56;25.90;99.90
2459;DHT22;1241;50.920;6.936;2022-08-18T10:15:45;26.70;99.90
2459;DHT22;1241;50.920;6.936;2022-08-18T10:18:42;27.00;99.90
2459;DHT22;1241;50.920;6.936;2022-08-18T10:21:18;27.20;99.90
2459;DHT22;1241;50.920;6.936;2022-08-18T10:29:04;27.30;99.90
2459;DHT22;1241;50.920;6.936;2022-08-18T10:39:47;27.90;99.90
2459;DHT22;1241;50.920;6.936;2022-08-18T10:45:28;26.90;99.90
2459;DHT22;1241;50.920;6.936;2022-08-18T10:50:37;26.90;99.90
2459;DHT22;1241;50.920;6.936;2022-08-18T10:53:31;27.10;99.90
2459;DHT22;1241;50.920;6.936;2022-08-18T10:59:16;27.70;99.90
2459;DHT22;1241;50.920;6.936;2022-08-18T11:02:05;27.50;99.90
2459;DHT22;1241;50.920;6.936;2022-08-18T11:04:42;27.40;99.90
2459;DHT22;1241;50.920;6.936;2022-08-18T11:09:36;27.60;99.90
2459;DHT22;1241;50.920;6.936;2022-08-18T11:12:03;27.60;99.90
2459;DHT22;1241;50.920;6.936;2022-08-18T11:14:51;27.50;99.90
2459;DHT22;1241;50.920;6.936;2022-08-18T11:20:14;27.20;99.90
2459;DHT22;1241;50.920;6.936;2022-08-18T11:22:56;27.10;99.90
2459;DHT22;1241;50.920;6.936;2022-08-18T11:25:29;27.10;99.90
2459;DHT22;1241;50.920;6.936;2022-08-18T11:27:56;27.00;99.90
2459;DHT22;1241;50.920;6.936;2022-08-18T11:30:26;27.30;99.90
2459;DHT22;1241;50.920;6.936;2022-08-18T11:32:52;27.60;99.90
2459;DHT22;1241;50.920;6.936;2022-08-18T11:35:23;27.80;99.90
2459;DHT22;1241;50.920;6.936;2022-08-18T11:38:04;28.10;99.90
2459;DHT22;1241;50.920;6.936;2022-08-18T11:40:46;28.10;99.90
2459;DHT22;1241;50.920;6.936;2022-08-18T11:43:29;28.30;99.90
2459;DHT22;1241;50.920;6.936;2022-08-18T11:45:59;28.30;99.90
2459;DHT22;1241;50.920;6.936;2022-08-18T11:51:19;28.30;99.90
2459;DHT22;1241;50.920;6.936;2022-08-18T11:53:50;28.50;99.90
2459;DHT22;1241;50.920;6.936;2022-08-18T11:58:48;28.60;99.90
2459;DHT22;1241;50.920;6.936;2022-08-18T12:09:41;27.50;99.90
2459;DHT22;1241;50.920;6.936;2022-08-18T12:12:24;27.50;99.90
2459;DHT22;1241;50.920;6.936;2022-08-18T12:14:57;27.50;99.90
2459;DHT22;1241;50.920;6.936;2022-08-18T12:17:24;27.60;99.90
2459;DHT22;1241;50.920;6.936;2022-08-18T12:19:50;27.50;99.90
2459;DHT22;1241;50.920;6.936;2022-08-18T12:22:23;27.30;99.90
2459;DHT22;1241;50.920;6.936;2022-08-18T12:24:49;27.30;99.90
2459;DHT22;1241;50.920;6.936;2022-08-18T12:27:17;27.10;99.90
2459;DHT22;1241;50.920;6.936;2022-08-18T12:29:43;27.00;99.90
2459;DHT22;1241;50.920;6.936;2022-08-18T12:32:10;27.10;99.90
2459;DHT22;1241;50.920;6.936;2022-08-18T12:34:36;27.00;99.90
2459;DHT22;1241;50.920;6.936;2022-08-18T12:37:02;27.10;99.90
2459;DHT22;1241;50.920;6.936;2022-08-18T12:39:29;27.40;99.90
2459;DHT22;1241;50.920;6.936;2022-08-18T12:41:56;27.60;99.90
2459;DHT22;1241;50.920;6.936;2022-08-18T12:44:23;27.80;99.90
2459;DHT22;1241;50.920;6.936;2022-08-18T12:46:49;27.90;99.90
2459;DHT22;1241;50.920;6.936;2022-08-18T12:49:21;27.90;99.90
2459;DHT22;1241;50.920;6.936;2022-08-18T12:51:48;28.00;99.90
2459;DHT22;1241;50.920;6.936;2022-08-18T12:54:14;27.90;99.90
2459;DHT22;1241;50.920;6.936;2022-08-18T12:56:41;27.80;99.90
2459;DHT22;1241;50.920;6.936;2022-08-18T12:59:08;27.90;99.90
2459;DHT22;1241;50.920;6.936;2022-08-18T13:01:37;27.90;99.90
2459;DHT22;1241;50.920;6.936;2022-08-18T13:04:04;28.10;99.90
2459;DHT22;1241;50.920;6.936;2022-08-18T13:06:32;28.20;99.90
2459;DHT22;1241;50.920;6.936;2022-08-18T13:08:59;28.30;99.90
2459;DHT22;1241;50.920;6.936;2022-08-18T13:11:25;28.40;99.90
2459;DHT22;1241;50.920;6.936;2022-08-18T13:13:52;28.50;99.90
2459;DHT22;1241;50.920;6.936;2022-08-18T13:16:18;28.60;99.90
2459;DHT22;1241;50.920;6.936;2022-08-18T13:18:44;28.50;99.90
2459;DHT22;1241;50.920;6.936;2022-08-18T13:21:13;28.40;99.90
2459;DHT22;1241;50.920;6.936;2022-08-18T13:23:40;28.20;99.90
2459;DHT22;1241;50.920;6.936;2022-08-18T13:26:18;28.00;99.90
2459;DHT22;1241;50.920;6.936;2022-08-18T13:28:46;28.00;99.90
2459;DHT22;1241;50.920;6.936;2022-08-18T13:31:14;28.00;99.90
2459;DHT22;1241;50.920;6.936;2022-08-18T13:33:43;28.00;99.90
2459;DHT22;1241;50.920;6.936;2022-08-18T13:36:09;27.70;99.90
2459;DHT22;1241;50.920;6.936;2022-08-18T13:38:35;27.80;99.90
2459;DHT22;1241;50.920;6.936;2022-08-18T13:41:03;27.80;99.90
2459;DHT22;1241;50.920;6.936;2022-08-18T13:43:38;27.90;99.90
2459;DHT22;1241;50.920;6.936;2022-08-18T13:46:08;28.20;99.90
2459;DHT22;1241;50.920;6.936;2022-08-18T13:48:34;28.30;99.90
2459;DHT22;1241;50.920;6.936;2022-08-18T13:51:00;28.50;99.90
2459;DHT22;1241;50.920;6.936;2022-08-18T13:53:29;28.50;99.90
2459;DHT22;1241;50.920;6.936;2022-08-18T13:55:55;28.60;99.90
2459;DHT22;1241;50.920;6.936;2022-08-18T13:58:26;28.80;99.90
2459;DHT22;1241;50.920;6.936;2022-08-18T14:00:59;29.10;99.90
2459;DHT22;1241;50.920;6.936;2022-08-18T14:03:29;29.10;99.90
2459;DHT22;1241;50.920;6.936;2022-08-18T14:05:55;29.00;99.90
2459;DHT22;1241;50.920;6.936;2022-08-18T14:08:25;29.00;99.90
2459;DHT22;1241;50.920;6.936;2022-08-18T14:10:53;29.00;99.90
2459;DHT22;1241;50.920;6.936;2022-08-18T14:13:20;28.90;99.90
2459;DHT22;1241;50.920;6.936;2022-08-18T14:15:48;28.90;99.90
2459;DHT22;1241;50.920;6.936;2022-08-18T14:18:15;28.60;99.90
2459;DHT22;1241;50.920;6.936;2022-08-18T14:20:41;28.40;99.90
2459;DHT22;1241;50.920;6.936;2022-08-18T14:23:25;28.50;99.90
2459;DHT22;1241;50.920;6.936;2022-08-18T14:26:10;28.40;99.90
2459;DHT22;1241;50.920;6.936;2022-08-18T14:28:54;28.20;99.90
2459;DHT22;1241;50.920;6.936;2022-08-18T14:31:20;28.10;99.90
2459;DHT22;1241;50.920;6.936;2022-08-18T14:33:47;27.70;99.90
2459;DHT22;1241;50.920;6.936;2022-08-18T14:36:14;27.60;99.90
2459;DHT22;1241;50.920;6.936;2022-08-18T14:38:40;27.70;99.90
2459;DHT22;1241;50.920;6.936;2022-08-18T14:41:09;28.00;99.90
2459;DHT22;1241;50.920;6.936;2022-08-18T14:43:35;28.20;99.90
2459;DHT22;1241;50.920;6.936;2022-08-18T14:46:02;28.30;99.90
2459;DHT22;1241;50.920;6.936;2022-08-18T14:48:28;28.30;99.90
2459;DHT22;1241;50.920;6.936;2022-08-18T14:50:55;28.20;99.90
2459;DHT22;1241;50.920;6.936;2022-08-18T14:53:25;28.20;99.90
2459;DHT22;1241;50.920;6.936;2022-08-18T14:55:52;28.30;99.90
2459;DHT22;1241;50.920;6.936;2022-08-18T14:58:19;28.20;99.90
2459;DHT22;1241;50.920;6.936;2022-08-18T15:00:45;28.20;99.90
2459;DHT22;1241;50.920;6.936;2022-08-18T15:03:10;28.30;99.90
2459;DHT22;1241;50.920;6.936;2022-08-18T15:05:36;28.30;99.90
2459;DHT22;1241;50.920;6.936;2022-08-18T15:08:03;28.60;99.90
2459;DHT22;1241;50.920;6.936;2022-08-18T15:10:29;28.60;99.90
2459;DHT22;1241;50.920;6.936;2022-08-18T15:12:55;28.60;99.90
2459;DHT22;1241;50.920;6.936;2022-08-18T15:15:26;28.40;99.90
2459;DHT22;1241;50.920;6.936;2022-08-18T15:17:51;28.50;99.90
2459;DHT22;1241;50.920;6.936;2022-08-18T15:20:17;28.20;99.90
2459;DHT22;1241;50.920;6.936;2022-08-18T15:22:44;28.10;99.90
2459;DHT22;1241;50.920;6.936;2022-08-18T15:25:29;28.00;99.90
2459;DHT22;1241;50.920;6.936;2022-08-18T15:28:07;27.90;99.90
2459;DHT22;1241;50.920;6.936;2022-08-18T15:30:34;28.00;99.90
2459;DHT22;1241;50.920;6.936;2022-08-18T15:33:02;28.10;99.90
2459;DHT22;1241;50.920;6.936;2022-08-18T15:35:28;28.00;99.90
2459;DHT22;1241;50.920;6.936;2022-08-18T15:37:54;27.90;99.90
2459;DHT22;1241;50.920;6.936;2022-08-18T15:40:22;27.70;99.90
2459;DHT22;1241;50.920;6.936;2022-08-18T15:42:52;27.60;99.90
2459;DHT22;1241;50.920;6.936;2022-08-18T15:45:34;27.40;99.90
2459;DHT22;1241;50.920;6.936;2022-08-18T15:48:03;27.30;99.90
2459;DHT22;1241;50.920;6.936;2022-08-18T15:50:29;27.50;99.90
2459;DHT22;1241;50.920;6.936;2022-08-18T15:52:57;27.60;99.90
2459;DHT22;1241;50.920;6.936;2022-08-18T15:55:25;27.60;99.90
2459;DHT22;1241;50.920;6.936;2022-08-18T15:57:51;27.70;99.90
2459;DHT22;1241;50.920;6.936;2022-08-18T16:00:18;27.70;99.90
2459;DHT22;1241;50.920;6.936;2022-08-18T16:02:53;27.50;99.90
2459;DHT22;1241;50.920;6.936;2022-08-18T16:05:23;27.30;99.90
2459;DHT22;1241;50.920;6.936;2022-08-18T16:07:51;27.30;99.90
2459;DHT22;1241;50.920;6.936;2022-08-18T16:10:23;27.40;99.90
2459;DHT22;1241;50.920;6.936;2022-08-18T16:12:49;27.30;99.90
2459;DHT22;1241;50.920;6.936;2022-08-18T16:15:21;27.20;99.90
2459;DHT22;1241;50.920;6.936;2022-08-18T16:17:51;27.10;99.90
2459;DHT22;1241;50.920;6.936;2022-08-18T16:20:18;26.80;99.90
2459;DHT22;1241;50.920;6.936;2022-08-18T16:22:45;26.40;99.90
2459;DHT22;1241;50.920;6.936;2022-08-18T16:25:11;26.20;99.90
2459;DHT22;1241;50.920;6.936;2022-08-18T16:27:38;26.20;99.90
2459;DHT22;1241;50.920;6.936;2022-08-18T16:30:27;26.30;99.90
2459;DHT22;1241;50.920;6.936;2022-08-18T16:32:53;26.40;99.90
2459;DHT22;1241;50.920;6.936;2022-08-18T16:35:20;26.50;99.90
2459;DHT22;1241;50.920;6.936;2022-08-18T16:37:46;26.60;99.90
2459;DHT22;1241;50.920;6.936;2022-08-18T16:40:14;26.60;99.90
2459;DHT22;1241;50.920;6.936;2022-08-18T16:42:40;26.60;99.90
2459;DHT22;1241;50.920;6.936;2022-08-18T16:45:06;26.60;99.90
2459;DHT22;1241;50.920;6.936;2022-08-18T16:47:34;26.70;99.90
2459;DHT22;1241;50.920;6.936;2022-08-18T16:50:10;26.50;99.90
2459;DHT22;1241;50.920;6.936;2022-08-18T16:52:37;26.50;99.90
2459;DHT22;1241;50.920;6.936;2022-08-18T16:55:04;26.50;99.90
2459;DHT22;1241;50.920;6.936;2022-08-18T16:57:30;26.50;99.90
2459;DHT22;1241;50.920;6.936;2022-08-18T17:00:15;26.50;99.90
2459;DHT22;1241;50.920;6.936;2022-08-18T17:03:07;26.40;99.90
2459;DHT22;1241;50.920;6.936;2022-08-18T17:06:03;26.30;99.90
2459;DHT22;1241;50.920;6.936;2022-08-18T17:08:29;26.20;99.90
2459;DHT22;1241;50.920;6.936;2022-08-18T17:11:00;26.20;99.90
2459;DHT22;1241;50.920;6.936;2022-08-18T17:13:26;26.00;99.90
2459;DHT22;1241;50.920;6.936;2022-08-18T17:15:51;25.90;99.90
2459;DHT22;1241;50.920;6.936;2022-08-18T17:18:17;25.80;99.90
2459;DHT22;1241;50.920;6.936;2022-08-18T17:20:44;25.70;99.90
2459;DHT22;1241;50.920;6.936;2022-08-18T17:23:11;25.50;99.90
2459;DHT22;1241;50.920;6.936;2022-08-18T17:25:37;25.50;99.90
2459;DHT22;1241;50.920;6.936;2022-08-18T17:28:03;25.50;99.90
2459;DHT22;1241;50.920;6.936;2022-08-18T17:30:32;25.50;99.90
2459;DHT22;1241;50.920;6.936;2022-08-18T17:33:04;25.50;99.90
2459;DHT22;1241;50.920;6.936;2022-08-18T17:35:46;25.50;99.90
2459;DHT22;1241;50.920;6.936;2022-08-18T17:38:24;25.40;99.90
2459;DHT22;1241;50.920;6.936;2022-08-18T17:40:55;25.40;99.90
2459;DHT22;1241;50.920;6.936;2022-08-18T17:43:24;25.40;99.90
2459;DHT22;1241;50.920;6.936;2022-08-18T17:45:56;25.30;99.90
2459;DHT22;1241;50.920;6.936;2022-08-18T17:48:27;25.20;99.90
2459;DHT22;1241;50.920;6.936;2022-08-18T17:51:03;25.10;99.90
2459;DHT22;1241;50.920;6.936;2022-08-18T17:53:50;25.00;99.90
2459;DHT22;1241;50.920;6.936;2022-08-18T17:56:21;24.90;99.90
2459;DHT22;1241;50.920;6.936;2022-08-18T17:58:54;24.90;99.90
2459;DHT22;1241;50.920;6.936;2022-08-18T18:01:23;24.80;99.90
2459;DHT22;1241;50.920;6.936;2022-08-18T18:03:50;24.70;99.90
2459;DHT22;1241;50.920;6.936;2022-08-18T18:06:39;24.70;99.90
2459;DHT22;1241;50.920;6.936;2022-08-18T18:09:28;24.70;99.90
2459;DHT22;1241;50.920;6.936;2022-08-18T18:11:54;24.60;99.90
2459;DHT22;1241;50.920;6.936;2022-08-18T18:17:23;24.70;99.90
2459;DHT22;1241;50.920;6.936;2022-08-18T18:20:09;24.70;99.90
2459;DHT22;1241;50.920;6.936;2022-08-18T18:22:38;24.70;99.90
2459;DHT22;1241;50.920;6.936;2022-08-18T18:25:05;24.70;99.90
2459;DHT22;1241;50.920;6.936;2022-08-18T18:32:56;24.80;99.90
2459;DHT22;1241;50.920;6.936;2022-08-18T18:38:36;24.70;99.90
2459;DHT22;1241;50.920;6.936;2022-08-18T18:43:42;24.70;99.90
2459;DHT22;1241;50.920;6.936;2022-08-18T18:46:30;24.60;99.90
2459;DHT22;1241;50.920;6.936;2022-08-18T18:49:26;24.60;99.90
2459;DHT22;1241;50.920;6.936;2022-08-18T18:55:16;24.40;99.90
2459;DHT22;1241;50.920;6.936;2022-08-18T19:00:37;24.30;99.90
2459;DHT22;1241;50.920;6.936;2022-08-18T19:03:45;24.30;99.90
2459;DHT22;1241;50.920;6.936;2022-08-18T19:09:19;24.20;99.90
2459;DHT22;1241;50.920;6.936;2022-08-18T19:14:35;24.00;99.90
2459;DHT22;1241;50.920;6.936;2022-08-18T19:17:09;23.90;99.90
2459;DHT22;1241;50.920;6.936;2022-08-18T19:19:53;23.90;99.90
2459;DHT22;1241;50.920;6.936;2022-08-18T19:22:23;23.80;99.90
2459;DHT22;1241;50.920;6.936;2022-08-18T19:24:57;23.80;99.90